Terminal Aerodrome Forecast
Issued by NWS

Home | Current Version | Previous Version | Text Only | Print | Product List | Glossary On
Versions: 1 2 3 4 5 6 7 8 9 10 11 12 13 14 15 16 17
000
FTUS41 KBOX 300207 AAA
TAFFMH
TAF AMD
KFMH 300207Z 3002/3024 04004KT 2SM -DZ BR OVC003
     FM301100 00000KT 3SM BR OVC008
     FM301300 11005KT P6SM BKN015
     FM301600 15009KT P6SM BKN020
     FM302100 17010KT P6SM SCT025
     FM302200 17009KT P6SM BKN025=

USA.gov is the U.S. government's official web portal to all federal, state and local government web resources and services.